createdAt,value
2019-05-21T00:02:21.771Z,33.90
2019-05-21T00:04:53.271Z,32.33
2019-05-21T00:07:24.514Z,31.87
2019-05-21T00:09:57.887Z,29.40
2019-05-21T00:12:29.037Z,31.13
2019-05-21T00:15:00.231Z,34.00
2019-05-21T00:17:31.460Z,30.37
2019-05-21T00:20:02.701Z,29.43
2019-05-21T00:22:34.060Z,27.30
2019-05-21T00:25:05.864Z,26.50
2019-05-21T00:27:37.186Z,26.97
2019-05-21T00:31:01.840Z,26.37
2019-05-21T00:34:26.764Z,25.93
2019-05-21T00:37:51.534Z,30.67
2019-05-21T00:41:16.759Z,29.27
2019-05-21T00:43:57.729Z,27.30
2019-05-21T00:46:28.970Z,33.07
2019-05-21T00:49:00.265Z,33.47
2019-05-21T00:51:31.499Z,32.63
2019-05-21T00:54:02.763Z,24.90
2019-05-21T00:56:33.887Z,24.70
2019-05-21T00:59:05.200Z,30.20
2019-05-21T01:01:36.439Z,26.53
2019-05-21T01:04:07.780Z,32.43
2019-05-21T01:06:38.955Z,30.90
2019-05-21T01:09:10.435Z,26.33
2019-05-21T01:11:41.661Z,33.33
2019-05-21T01:14:12.907Z,23.77
2019-05-21T01:16:44.217Z,30.00
2019-05-21T01:19:18.318Z,30.17
2019-05-21T01:21:49.628Z,37.50
2019-05-21T01:24:20.866Z,36.83
2019-05-21T01:26:52.168Z,36.17
2019-05-21T01:29:23.492Z,34.50
2019-05-21T01:31:54.740Z,33.97
2019-05-21T01:34:25.952Z,43.17
2019-05-21T01:36:57.134Z,43.83
2019-05-21T01:39:28.404Z,40.03
2019-05-21T01:41:59.704Z,46.53
2019-05-21T01:44:31.066Z,51.53
2019-05-21T01:47:02.214Z,47.43
2019-05-21T01:49:33.444Z,54.93
2019-05-21T01:52:04.798Z,54.40
2019-05-21T01:54:36.060Z,61.57
2019-05-21T01:57:07.337Z,61.33
2019-05-21T01:59:38.590Z,59.97
2019-05-21T02:02:09.835Z,51.30
2019-05-21T02:04:43.411Z,47.10
2019-05-21T02:07:14.565Z,56.70
2019-05-21T02:10:13.543Z,54.27
2019-05-21T02:12:44.786Z,59.83
2019-05-21T02:15:16.296Z,64.60
2019-05-21T02:17:47.456Z,60.13
2019-05-21T02:20:18.875Z,79.53
2019-05-21T02:22:50.126Z,68.70
2019-05-21T02:25:21.558Z,75.77
2019-05-21T02:27:52.830Z,65.10
2019-05-21T02:30:24.714Z,59.43
2019-05-21T02:32:55.955Z,70.17
2019-05-21T02:35:27.193Z,76.97
2019-05-21T02:37:58.466Z,63.60
2019-05-21T02:40:29.736Z,70.10
2019-05-21T02:43:01.022Z,75.00
2019-05-21T02:45:32.257Z,69.30
2019-05-21T02:48:03.548Z,67.13
2019-05-21T02:50:34.817Z,57.47
2019-05-21T02:53:06.136Z,61.07
2019-05-21T02:55:37.368Z,61.90
2019-05-21T02:58:08.614Z,68.60
2019-05-21T03:00:46.834Z,61.57
2019-05-21T03:03:19.284Z,52.40
2019-05-21T03:05:50.557Z,71.17
2019-05-21T03:08:21.823Z,59.93
2019-05-21T03:10:53.417Z,62.17
2019-05-21T03:13:24.705Z,60.47
2019-05-21T03:15:55.918Z,61.80
2019-05-21T03:18:27.169Z,63.23
2019-05-21T03:20:58.304Z,63.17
2019-05-21T03:23:29.499Z,58.47
2019-05-21T03:26:00.856Z,61.27
2019-05-21T03:28:31.998Z,62.53
2019-05-21T03:31:03.233Z,62.40
2019-05-21T03:33:34.531Z,54.13
2019-05-21T03:36:06.010Z,58.93
2019-05-21T03:38:37.265Z,61.63
2019-05-21T03:41:08.544Z,67.47
2019-05-21T03:43:39.778Z,58.30
2019-05-21T03:46:11.072Z,57.80
2019-05-21T03:48:42.352Z,56.00
2019-05-21T03:51:13.612Z,55.87
2019-05-21T03:53:44.771Z,64.07
2019-05-21T03:56:15.993Z,45.33
2019-05-21T03:58:47.236Z,53.23
2019-05-21T04:01:18.488Z,59.10
2019-05-21T04:03:49.773Z,50.13
2019-05-21T04:06:21.029Z,50.10
2019-05-21T04:08:52.335Z,47.23
2019-05-21T04:11:23.615Z,48.03
2019-05-21T04:13:54.893Z,49.40
2019-05-21T04:16:50.972Z,47.13
2019-05-21T04:19:25.920Z,50.33
2019-05-21T04:21:57.354Z,52.50
2019-05-21T04:24:28.616Z,45.27
2019-05-21T04:26:59.914Z,49.70
2019-05-21T04:29:31.168Z,51.67
2019-05-21T04:32:02.486Z,44.33
2019-05-21T04:34:33.725Z,44.73
2019-05-21T04:37:10.822Z,54.87
2019-05-21T04:39:38.027Z,50.23
2019-05-21T04:42:10.074Z,51.63
2019-05-21T04:44:41.342Z,47.53
2019-05-21T04:47:12.638Z,43.47
2019-05-21T04:49:43.911Z,43.67
2019-05-21T04:52:15.151Z,47.03
2019-05-21T04:54:46.438Z,42.83
2019-05-21T04:57:17.585Z,46.63
2019-05-21T04:59:48.786Z,44.23
2019-05-21T05:02:20.068Z,39.30
2019-05-21T05:04:51.322Z,33.07
2019-05-21T05:07:28.358Z,38.70
2019-05-21T05:09:55.463Z,38.87
2019-05-21T05:12:26.728Z,42.00
2019-05-21T05:15:00.547Z,38.70
2019-05-21T05:17:31.806Z,33.73
2019-05-21T05:20:03.110Z,37.57
2019-05-21T05:22:34.379Z,34.63
2019-05-21T05:25:06.537Z,36.17
2019-05-21T05:27:37.756Z,32.13
2019-05-21T05:30:11.492Z,38.37
2019-05-21T05:32:42.684Z,34.23
2019-05-21T05:35:14.669Z,34.50
2019-05-21T05:37:48.787Z,38.53
2019-05-21T05:40:19.409Z,30.97
2019-05-21T05:42:50.668Z,37.07
2019-05-21T05:45:22.286Z,38.70
2019-05-21T05:47:53.560Z,34.83
2019-05-21T05:50:27.557Z,32.67
2019-05-21T05:52:58.849Z,27.63
2019-05-21T05:55:30.132Z,32.13
2019-05-21T05:58:01.421Z,25.93
2019-05-21T06:00:32.735Z,27.80
2019-05-21T06:03:04.086Z,27.43
2019-05-21T06:05:35.230Z,28.23
2019-05-21T06:08:06.500Z,30.47
2019-05-21T06:10:40.066Z,31.03
2019-05-21T06:13:10.703Z,26.50
2019-05-21T06:15:41.921Z,34.30
2019-05-21T06:18:13.196Z,28.87
2019-05-21T06:20:44.494Z,28.30
2019-05-21T06:23:15.794Z,27.07
2019-05-21T06:25:47.064Z,31.33
2019-05-21T06:28:18.189Z,29.73
2019-05-21T06:30:52.669Z,31.40
2019-05-21T06:33:23.909Z,33.30
2019-05-21T06:35:55.205Z,34.50
2019-05-21T06:38:26.342Z,29.90
2019-05-21T06:40:57.624Z,33.13
2019-05-21T06:43:28.927Z,28.60
2019-05-21T06:46:00.202Z,32.10
2019-05-21T06:48:31.519Z,35.73
2019-05-21T06:51:02.769Z,36.20
2019-05-21T06:53:34.053Z,32.13
2019-05-21T06:56:07.645Z,30.77
2019-05-21T06:58:38.370Z,31.23
2019-05-21T07:01:09.608Z,29.63
2019-05-21T07:03:40.961Z,35.23
2019-05-21T07:06:12.346Z,29.33
2019-05-21T07:08:43.597Z,34.43
2019-05-21T07:11:14.853Z,26.67
2019-05-21T07:13:46.145Z,28.57
2019-05-21T07:16:17.381Z,32.83
2019-05-21T07:18:48.609Z,31.80
2019-05-21T07:21:19.925Z,27.23
2019-05-21T07:23:51.167Z,36.80
2019-05-21T07:26:22.389Z,29.30
2019-05-21T07:28:57.125Z,29.57
2019-05-21T07:31:28.716Z,31.97
2019-05-21T07:34:00.016Z,29.30
2019-05-21T07:36:32.736Z,36.57
2019-05-21T07:39:05.008Z,25.50
2019-05-21T07:41:36.227Z,34.60
2019-05-21T07:44:07.577Z,30.23
2019-05-21T07:46:39.794Z,29.40
2019-05-21T07:49:11.330Z,29.50
2019-05-21T07:51:42.586Z,30.97
2019-05-21T07:54:15.181Z,32.37
2019-05-21T07:56:46.463Z,30.33
2019-05-21T07:59:17.828Z,28.47
2019-05-21T08:01:49.171Z,28.83
2019-05-21T08:04:23.490Z,31.10
2019-05-21T08:06:54.959Z,24.77
2019-05-21T08:09:26.156Z,34.70
2019-05-21T08:11:57.554Z,30.17
2019-05-21T08:14:28.858Z,32.67
2019-05-21T08:17:00.229Z,27.13
2019-05-21T08:19:39.377Z,24.43
2019-05-21T08:22:10.706Z,22.90
2019-05-21T08:24:42.010Z,25.13
2019-05-21T08:27:20.592Z,23.47
2019-05-21T08:29:51.913Z,30.40
2019-05-21T08:32:23.186Z,26.40
2019-05-21T08:34:54.458Z,22.40
2019-05-21T08:37:28.864Z,26.57
2019-05-21T08:40:00.230Z,24.00
2019-05-21T08:42:31.565Z,28.63
2019-05-21T08:45:04.299Z,28.83
2019-05-21T08:47:35.758Z,24.30
2019-05-21T08:50:07.950Z,24.23
2019-05-21T08:52:39.248Z,28.53
2019-05-21T08:55:11.257Z,23.33
2019-05-21T08:57:42.821Z,28.20
2019-05-21T09:00:17.359Z,32.80
2019-05-21T09:02:48.522Z,30.50
2019-05-21T09:05:20.179Z,31.70
2019-05-21T09:07:53.676Z,33.00
2019-05-21T09:10:24.583Z,33.13
2019-05-21T09:12:59.110Z,34.20
2019-05-21T09:15:30.382Z,34.27
2019-05-21T09:18:01.661Z,35.10
2019-05-21T09:20:33.033Z,33.00
2019-05-21T09:23:04.299Z,41.10
2019-05-21T09:25:38.101Z,37.43
2019-05-21T09:28:09.338Z,35.43
2019-05-21T09:30:40.558Z,41.67
2019-05-21T09:33:11.777Z,40.17
2019-05-21T09:35:43.086Z,35.73
2019-05-21T09:38:14.372Z,38.50
2019-05-21T09:40:48.846Z,32.83
2019-05-21T09:43:20.102Z,40.67
2019-05-21T09:45:55.377Z,33.20
2019-05-21T09:48:26.589Z,38.00
2019-05-21T09:50:57.845Z,36.27
2019-05-21T09:53:29.153Z,38.37
2019-05-21T09:56:10.739Z,46.03
2019-05-21T09:58:45.809Z,37.13
2019-05-21T10:01:34.083Z,38.47
2019-05-21T10:04:05.606Z,40.03
2019-05-21T10:06:36.914Z,48.93
2019-05-21T10:09:16.601Z,42.83
2019-05-21T10:11:47.969Z,40.60
2019-05-21T10:14:19.368Z,42.77
2019-05-21T10:16:50.679Z,42.13
2019-05-21T10:19:23.431Z,37.93
2019-05-21T10:21:56.935Z,43.70
2019-05-21T10:24:27.571Z,37.43
2019-05-21T10:27:03.414Z,39.77
2019-05-21T10:29:33.409Z,42.00
2019-05-21T10:32:07.731Z,39.63
2019-05-21T10:34:39.167Z,42.30
2019-05-21T10:37:13.250Z,44.00
2019-05-21T10:39:44.583Z,39.57
2019-05-21T10:42:15.881Z,49.53
2019-05-21T10:44:47.138Z,37.60
2019-05-21T10:47:18.546Z,47.37
2019-05-21T10:49:49.813Z,48.40
2019-05-21T10:52:21.096Z,42.60
2019-05-21T10:54:52.345Z,42.30
2019-05-21T10:57:23.623Z,46.80
2019-05-21T10:59:54.941Z,54.03
2019-05-21T11:02:35.689Z,54.00
2019-05-21T11:05:14.698Z,45.87
2019-05-21T11:07:46.067Z,40.13
2019-05-21T11:10:17.448Z,43.00
2019-05-21T11:12:48.851Z,46.03
2019-05-21T11:15:20.626Z,52.07
2019-05-21T11:18:09.159Z,50.90
2019-05-21T11:20:24.949Z,47.30
2019-05-21T11:22:58.284Z,53.20
2019-05-21T11:25:29.080Z,58.80
2019-05-21T11:28:00.380Z,50.63
2019-05-21T11:30:31.624Z,51.23
2019-05-21T11:33:03.016Z,47.07
2019-05-21T11:35:36.211Z,48.03
2019-05-21T11:38:07.578Z,46.27
2019-05-21T11:40:38.824Z,55.20
2019-05-21T11:43:10.082Z,44.20
2019-05-21T11:45:41.467Z,47.40
2019-05-21T11:48:18.072Z,51.23
2019-05-21T11:51:16.086Z,43.43
2019-05-21T11:54:18.165Z,47.80
2019-05-21T11:57:12.266Z,42.27
2019-05-21T12:00:03.018Z,45.87
2019-05-21T12:02:54.775Z,40.83
2019-05-21T12:05:42.187Z,43.10
2019-05-21T12:08:25.229Z,46.23
2019-05-21T12:11:10.093Z,45.53
2019-05-21T12:14:00.596Z,45.80
2019-05-21T12:16:40.648Z,43.97
2019-05-21T12:19:15.687Z,44.83
2019-05-21T12:21:57.736Z,45.43
2019-05-21T12:24:45.507Z,33.90
2019-05-21T12:27:37.706Z,40.23
2019-05-21T12:30:27.542Z,37.80
2019-05-21T12:33:06.927Z,36.10
2019-05-21T12:35:44.027Z,35.97
2019-05-21T12:38:34.528Z,40.20
2019-05-21T12:41:09.036Z,37.13
2019-05-21T12:43:49.238Z,38.90
2019-05-21T12:46:35.821Z,34.60
2019-05-21T12:49:35.482Z,41.33
2019-05-21T12:52:19.424Z,37.43
2019-05-21T12:55:04.862Z,34.43
2019-05-21T12:57:42.105Z,36.97
2019-05-21T13:00:22.440Z,40.77
2019-05-21T13:02:58.951Z,32.33
2019-05-21T13:05:34.708Z,39.10
2019-05-21T13:08:11.105Z,36.50
2019-05-21T13:10:47.634Z,35.50
2019-05-21T13:13:20.852Z,34.07
2019-05-21T13:16:02.625Z,31.27
2019-05-21T13:19:00.628Z,32.20
2019-05-21T13:21:34.340Z,30.90
2019-05-21T13:24:13.349Z,30.20
2019-05-21T13:26:57.346Z,29.07
2019-05-21T13:29:28.854Z,29.73
2019-05-21T13:32:00.120Z,26.30
2019-05-21T13:34:31.406Z,32.33
2019-05-21T13:37:02.718Z,33.83
2019-05-21T13:39:48.854Z,34.23
2019-05-21T13:42:07.075Z,32.63
2019-05-21T13:44:38.349Z,29.67
2019-05-21T13:47:09.639Z,29.47
2019-05-21T13:49:40.947Z,27.90
2019-05-21T13:52:12.250Z,36.47
2019-05-21T13:54:43.607Z,33.47
2019-05-21T13:57:17.008Z,35.00
2019-05-21T13:59:48.245Z,38.83
2019-05-21T14:02:23.891Z,35.47
2019-05-21T14:04:55.287Z,40.93
2019-05-21T14:07:26.913Z,37.77
2019-05-21T14:10:13.209Z,36.73
2019-05-21T14:12:31.253Z,41.40
2019-05-21T14:15:02.519Z,38.23
2019-05-21T14:17:33.806Z,32.70
2019-05-21T14:20:05.640Z,34.07
2019-05-21T14:22:36.864Z,38.13
2019-05-21T14:25:08.657Z,46.87
2019-05-21T14:27:44.784Z,42.37
2019-05-21T14:30:13.329Z,47.93
2019-05-21T14:32:44.608Z,47.37
2019-05-21T14:35:16.124Z,39.97
2019-05-21T14:37:47.408Z,40.60
2019-05-21T14:40:31.542Z,43.07
2019-05-21T14:42:59.827Z,40.87
2019-05-21T14:45:32.902Z,45.10
2019-05-21T14:48:00.584Z,45.27
2019-05-21T14:50:31.911Z,41.47
2019-05-21T14:53:03.179Z,42.30
2019-05-21T14:55:34.497Z,39.00
2019-05-21T14:58:09.295Z,40.00
2019-05-21T15:00:41.053Z,42.33
2019-05-21T15:03:24.250Z,39.43
2019-05-21T15:05:45.183Z,35.93
2019-05-21T15:08:16.297Z,44.50
2019-05-21T15:10:49.297Z,40.60
2019-05-21T15:13:20.508Z,37.67
2019-05-21T15:15:51.747Z,35.10
2019-05-21T15:18:25.273Z,36.27
2019-05-21T15:21:01.235Z,35.30
2019-05-21T15:23:32.519Z,38.03
2019-05-21T15:26:03.882Z,34.20
2019-05-21T15:28:35.259Z,32.30
2019-05-21T15:31:06.557Z,30.40
2019-05-21T15:33:37.764Z,31.60
2019-05-21T15:36:08.997Z,34.60
2019-05-21T15:38:50.113Z,31.50
2019-05-21T15:41:15.264Z,29.73
2019-05-21T15:43:46.650Z,28.00
2019-05-21T15:46:19.892Z,31.10
2019-05-21T15:48:51.192Z,27.53
2019-05-21T15:51:22.408Z,29.77
2019-05-21T15:53:53.735Z,30.13
2019-05-21T15:56:25.022Z,28.07
2019-05-21T15:58:56.345Z,32.63
2019-05-21T16:01:27.602Z,28.87
2019-05-21T16:03:58.968Z,31.80
2019-05-21T16:06:30.289Z,35.07
2019-05-21T16:09:01.617Z,29.63
2019-05-21T16:11:32.952Z,31.00
2019-05-21T16:14:04.416Z,30.10
2019-05-21T16:16:35.748Z,31.80
2019-05-21T16:19:07.236Z,36.17
2019-05-21T16:21:38.708Z,36.53
2019-05-21T16:24:09.950Z,33.90
2019-05-21T16:26:41.596Z,29.73
2019-05-21T16:29:12.881Z,33.90
2019-05-21T16:31:53.357Z,34.97
2019-05-21T16:34:24.618Z,36.53
2019-05-21T16:36:55.984Z,29.40
2019-05-21T16:39:27.407Z,38.13
2019-05-21T16:41:58.733Z,38.40
2019-05-21T16:44:30.111Z,32.13
2019-05-21T16:47:01.298Z,38.43
2019-05-21T16:49:37.108Z,31.27
2019-05-21T16:52:08.403Z,40.57
2019-05-21T16:54:42.379Z,35.23
2019-05-21T16:57:13.571Z,33.27
2019-05-21T16:59:44.833Z,31.90
2019-05-21T17:02:17.216Z,33.83
2019-05-21T17:04:48.561Z,37.27
2019-05-21T17:07:19.745Z,37.43
2019-05-21T17:09:51.038Z,35.03
2019-05-21T17:12:22.330Z,37.70
2019-05-21T17:14:53.585Z,31.50
2019-05-21T17:17:24.823Z,34.07
2019-05-21T17:19:56.172Z,34.03
2019-05-21T17:22:27.497Z,34.70
2019-05-21T17:24:59.115Z,36.47
2019-05-21T17:27:31.058Z,33.17
2019-05-21T17:30:02.339Z,29.97
2019-05-21T17:32:33.830Z,30.37
2019-05-21T17:35:08.442Z,31.40
2019-05-21T17:37:39.678Z,31.30
2019-05-21T17:40:12.052Z,34.53
2019-05-21T17:42:43.401Z,37.90
2019-05-21T17:45:15.027Z,42.17
2019-05-21T17:47:46.436Z,33.63
2019-05-21T17:50:18.349Z,35.10
2019-05-21T17:52:49.596Z,39.93
2019-05-21T17:55:20.943Z,40.77
2019-05-21T17:57:52.638Z,35.07
2019-05-21T18:00:34.210Z,47.23
2019-05-21T18:03:05.439Z,40.13
2019-05-21T18:05:37.175Z,41.17
2019-05-21T18:08:08.696Z,36.13
2019-05-21T18:10:39.987Z,41.13
2019-05-21T18:13:12.702Z,35.80
2019-05-21T18:15:44.256Z,40.07
2019-05-21T18:18:15.844Z,43.40
2019-05-21T18:20:47.612Z,36.70
2019-05-21T18:23:30.402Z,43.17
2019-05-21T18:26:04.958Z,34.40
2019-05-21T18:28:38.344Z,34.60
2019-05-21T18:31:11.509Z,39.87
2019-05-21T18:33:43.205Z,33.37
2019-05-21T18:36:14.467Z,34.70
2019-05-21T18:38:46.048Z,31.83
2019-05-21T18:41:17.601Z,37.53
2019-05-21T18:43:50.218Z,35.93
2019-05-21T18:46:21.937Z,36.00
2019-05-21T18:48:53.221Z,37.47
2019-05-21T18:51:24.465Z,33.67
2019-05-21T18:53:55.676Z,39.83
2019-05-21T18:56:27.068Z,39.17
2019-05-21T18:58:58.336Z,35.33
2019-05-21T19:01:29.648Z,37.43
2019-05-21T19:04:00.978Z,32.77
2019-05-21T19:06:32.294Z,36.10
2019-05-21T19:09:05.290Z,42.37
2019-05-21T19:11:36.661Z,35.53
2019-05-21T19:14:08.393Z,31.30
2019-05-21T19:16:39.683Z,33.60
2019-05-21T19:19:11.033Z,34.70
2019-05-21T19:21:42.297Z,34.30
2019-05-21T19:24:13.628Z,34.00
2019-05-21T19:26:45.041Z,37.93
2019-05-21T19:29:16.460Z,37.40
2019-05-21T19:31:49.348Z,39.00
2019-05-21T19:34:21.025Z,37.47
2019-05-21T19:36:52.326Z,33.57
2019-05-21T19:39:23.658Z,40.13
2019-05-21T19:42:01.319Z,43.63
2019-05-21T19:44:32.611Z,32.73
2019-05-21T19:47:03.950Z,37.97
2019-05-21T19:49:35.191Z,43.47
2019-05-21T19:52:06.515Z,48.20
2019-05-21T19:54:37.884Z,44.67
2019-05-21T19:57:09.463Z,41.50
2019-05-21T19:59:41.467Z,43.27
2019-05-21T20:02:19.235Z,43.50
2019-05-21T20:04:54.139Z,47.17
2019-05-21T20:07:27.230Z,49.43
2019-05-21T20:09:59.613Z,45.23
2019-05-21T20:12:31.708Z,51.20
2019-05-21T20:15:03.195Z,59.70
2019-05-21T20:17:36.011Z,48.80
2019-05-21T20:20:09.313Z,53.33
2019-05-21T20:22:42.859Z,49.80
2019-05-21T20:25:59.180Z,48.70
2019-05-21T20:28:31.283Z,55.13
2019-05-21T20:31:05.531Z,53.77
2019-05-21T20:33:37.115Z,59.53
2019-05-21T20:36:45.816Z,51.33
2019-05-21T20:39:27.023Z,51.10
2019-05-21T20:41:58.857Z,53.70
2019-05-21T20:44:33.096Z,61.20
2019-05-21T20:47:06.284Z,58.60
2019-05-21T20:49:37.782Z,68.73
2019-05-21T20:52:18.930Z,61.87
2019-05-21T20:54:53.873Z,55.53
2019-05-21T20:57:29.682Z,57.80
2019-05-21T21:00:00.944Z,61.20
2019-05-21T21:02:33.717Z,55.43
2019-05-21T21:05:06.213Z,62.00
2019-05-21T21:07:40.856Z,59.50
2019-05-21T21:10:22.967Z,60.63
2019-05-21T21:13:01.834Z,56.70
2019-05-21T21:15:35.813Z,64.87
2019-05-21T21:18:09.689Z,60.00
2019-05-21T21:20:41.394Z,57.40
2019-05-21T21:23:15.294Z,62.20
2019-05-21T21:25:47.184Z,60.83
2019-05-21T21:28:18.817Z,67.50
2019-05-21T21:30:50.254Z,71.80
2019-05-21T21:33:21.911Z,69.90
2019-05-21T21:35:54.009Z,70.13
2019-05-21T21:38:29.175Z,76.23
2019-05-21T21:41:00.666Z,63.43
2019-05-21T21:43:48.200Z,77.70
2019-05-21T21:46:21.443Z,69.20
2019-05-21T21:48:52.991Z,66.70
2019-05-21T21:51:27.894Z,69.63
2019-05-21T21:53:59.345Z,57.27
2019-05-21T21:56:30.594Z,62.57
2019-05-21T21:59:02.634Z,69.70
2019-05-21T22:01:51.111Z,76.33
2019-05-21T22:04:29.711Z,82.87
2019-05-21T22:07:01.278Z,73.17
2019-05-21T22:09:38.072Z,71.40
2019-05-21T22:12:17.034Z,81.67
2019-05-21T22:14:58.005Z,80.10
2019-05-21T22:17:29.570Z,83.27
2019-05-21T22:20:01.204Z,75.67
2019-05-21T22:22:32.686Z,79.10
2019-05-21T22:25:04.876Z,89.50
2019-05-21T22:27:36.288Z,81.37
2019-05-21T22:30:09.895Z,78.33
2019-05-21T22:32:41.569Z,85.80
2019-05-21T22:35:13.525Z,82.63
2019-05-21T22:37:44.817Z,78.17
2019-05-21T22:40:17.704Z,80.60
2019-05-21T22:42:49.152Z,75.50
2019-05-21T22:45:20.452Z,75.87
2019-05-21T22:47:51.982Z,84.53
2019-05-21T22:50:23.208Z,70.77
2019-05-21T22:52:54.498Z,82.17
2019-05-21T22:55:25.878Z,74.67
2019-05-21T22:57:57.691Z,82.70
2019-05-21T23:00:30.094Z,71.43
2019-05-21T23:03:02.834Z,80.17
2019-05-21T23:05:34.097Z,82.33
2019-05-21T23:08:06.009Z,75.50
2019-05-21T23:10:37.539Z,78.00
2019-05-21T23:13:08.942Z,72.33
2019-05-21T23:15:40.336Z,72.93
2019-05-21T23:18:11.631Z,73.90
2019-05-21T23:20:43.744Z,68.27
2019-05-21T23:23:15.893Z,69.63
2019-05-21T23:25:47.646Z,76.30
2019-05-21T23:28:19.239Z,62.77
2019-05-21T23:30:51.890Z,74.97
2019-05-21T23:33:23.999Z,77.30
2019-05-21T23:35:55.272Z,70.33
2019-05-21T23:38:27.917Z,74.23
2019-05-21T23:40:59.868Z,67.20
2019-05-21T23:43:31.916Z,78.87
2019-05-21T23:46:04.757Z,66.97
2019-05-21T23:48:37.346Z,65.83
2019-05-21T23:51:08.728Z,64.83
2019-05-21T23:53:40.443Z,62.77
2019-05-21T23:56:11.704Z,71.77
2019-05-21T23:58:43.008Z,64.50
